Time;durP1;ratioP1;P1;durP2;ratioP2;P2;SDS_P1;SDS_P2;PMS_P1;PMS_P2;Temp;Humidity;BMP_temperature;BMP_pressure;BME280_temperature;BME280_humidity;BME280_pressure;Samples;Min_cycle;Max_cycle;Signal;HPM_P1;HPM_P2
2022/01/10 00:00:50;;;;;;;1.30;1.30;;;;;;;;;;5066893;28;20209;-68
2022/01/10 00:03:37;;;;;;;1.30;1.30;;;;;;;;;;5064016;28;20289;-68
2022/01/10 00:06:24;;;;;;;1.43;1.33;;;;;;;;;;5063218;28;20314;-67
2022/01/10 00:09:11;;;;;;;1.30;1.30;;;;;;;;;;5066760;28;20267;-68
2022/01/10 00:11:59;;;;;;;1.60;1.50;;;;;;;;;;5062537;28;20288;-67
2022/01/10 00:14:46;;;;;;;1.57;1.53;;;;;;;;;;5067057;28;20241;-67
2022/01/10 00:17:33;;;;;;;1.47;1.37;;;;;;;;;;5066534;28;20290;-68
2022/01/10 00:20:20;;;;;;;1.53;1.43;;;;;;;;;;5063809;28;20215;-67
2022/01/10 00:23:08;;;;;;;1.50;1.40;;;;;;;;;;5064824;28;20212;-68
2022/01/10 00:25:54;;;;;;;1.33;1.27;;;;;;;;;;5061257;28;20226;-68
2022/01/10 00:28:43;;;;;;;1.50;1.40;;;;;;;;;;5066536;28;20256;-67
2022/01/10 00:31:30;;;;;;;1.30;1.30;;;;;;;;;;5067191;28;20295;-67
2022/01/10 00:34:17;;;;;;;1.50;1.50;;;;;;;;;;5066304;28;20260;-69
2022/01/10 00:37:04;;;;;;;1.23;1.23;;;;;;;;;;5064916;28;20292;-68
2022/01/10 00:39:51;;;;;;;1.30;1.30;;;;;;;;;;5063179;28;20675;-68
2022/01/10 00:42:38;;;;;;;1.50;1.50;;;;;;;;;;5063850;28;20228;-68
2022/01/10 00:45:28;;;;;;;1.60;1.50;;;;;;;;;;5066477;28;20627;-68
2022/01/10 00:48:15;;;;;;;1.37;1.37;;;;;;;;;;5064901;28;20243;-67
2022/01/10 00:51:02;;;;;;;1.50;1.40;;;;;;;;;;5063782;28;20277;-68
2022/01/10 00:53:50;;;;;;;1.20;1.17;;;;;;;;;;5066243;28;20244;-68
2022/01/10 00:56:37;;;;;;;1.27;1.27;;;;;;;;;;5066419;28;20278;-68
2022/01/10 00:59:24;;;;;;;1.30;1.30;;;;;;;;;;5063332;28;20208;-68
2022/01/10 01:02:13;;;;;;;1.30;1.30;;;;;;;;;;5060992;28;20336;-68
2022/01/10 01:05:00;;;;;;;1.43;1.40;;;;;;;;;;5063161;28;20656;-68
2022/01/10 01:07:48;;;;;;;1.20;1.20;;;;;;;;;;5061971;28;20259;-69
2022/01/10 01:11:01;;;;;;;1.13;1.13;;;;;;;;;;5063307;28;20243;-68
2022/01/10 01:13:54;;;;;;;1.60;1.50;;;;;;;;;;5062620;28;20207;-69
2022/01/10 01:16:56;;;;;;;1.40;1.40;;;;;;;;;;5062949;28;20213;-67
2022/01/10 01:20:08;;;;;;;1.40;1.30;;;;;;;;;;5064608;28;20207;-68
2022/01/10 01:26:01;;;;;;;1.20;1.10;;;;;;;;;;5060657;28;20227;-68
2022/01/10 01:28:48;;;;;;;1.13;1.13;;;;;;;;;;5065193;28;20303;-68
2022/01/10 01:31:36;;;;;;;1.33;1.30;;;;;;;;;;5058337;28;20782;-68
2022/01/10 01:34:24;;;;;;;1.37;1.27;;;;;;;;;;5063264;28;20195;-67
2022/01/10 01:37:13;;;;;;;1.30;1.20;;;;;;;;;;5064064;28;20333;-68
2022/01/10 01:40:00;;;;;;;1.23;1.23;;;;;;;;;;5063092;28;20233;-68
2022/01/10 01:42:47;;;;;;;1.57;1.57;;;;;;;;;;5062899;28;20231;-68
2022/01/10 01:45:39;;;;;;;1.20;1.20;;;;;;;;;;5062942;28;20206;-68
2022/01/10 01:48:26;;;;;;;1.40;1.30;;;;;;;;;;5063477;28;20786;-68
2022/01/10 01:51:13;;;;;;;1.30;1.30;;;;;;;;;;5060869;28;20294;-68
2022/01/10 01:54:01;;;;;;;1.20;1.13;;;;;;;;;;5059388;28;20751;-68
2022/01/10 01:56:49;;;;;;;1.53;1.43;;;;;;;;;;5063830;28;20212;-69
2022/01/10 01:59:37;;;;;;;1.20;1.20;;;;;;;;;;5065540;28;20260;-68
2022/01/10 02:02:24;;;;;;;1.20;1.20;;;;;;;;;;5062937;28;20239;-68
2022/01/10 02:05:11;;;;;;;1.20;1.20;;;;;;;;;;5063880;28;20702;-68
2022/01/10 02:07:58;;;;;;;1.27;1.27;;;;;;;;;;5065539;28;20228;-68
2022/01/10 02:10:46;;;;;;;1.20;1.20;;;;;;;;;;5063107;28;20320;-68
2022/01/10 02:13:34;;;;;;;1.53;1.43;;;;;;;;;;5061325;28;20295;-68
2022/01/10 02:16:32;;;;;;;1.33;1.33;;;;;;;;;;5062853;28;20211;-67
2022/01/10 02:19:19;;;;;;;1.40;1.30;;;;;;;;;;5059409;28;20593;-68
2022/01/10 02:22:07;;;;;;;1.40;1.40;;;;;;;;;;5065374;28;20280;-68
2022/01/10 02:24:54;;;;;;;1.53;1.53;;;;;;;;;;5064219;28;20320;-68
2022/01/10 02:27:42;;;;;;;1.47;1.37;;;;;;;;;;5059278;28;20309;-68
2022/01/10 02:30:29;;;;;;;1.20;1.20;;;;;;;;;;5063461;28;20694;-67
2022/01/10 02:33:16;;;;;;;1.50;1.40;;;;;;;;;;5059723;28;20677;-68
2022/01/10 02:36:13;;;;;;;1.40;1.40;;;;;;;;;;5064029;28;20309;-68
2022/01/10 02:39:06;;;;;;;1.53;1.47;;;;;;;;;;5065059;28;20218;-68
2022/01/10 02:41:53;;;;;;;1.20;1.20;;;;;;;;;;5059396;28;20444;-68
2022/01/10 02:44:40;;;;;;;1.40;1.40;;;;;;;;;;5063170;28;20264;-68
2022/01/10 02:47:29;;;;;;;1.40;1.30;;;;;;;;;;5061084;28;20302;-68
2022/01/10 02:50:18;;;;;;;1.50;1.40;;;;;;;;;;5064248;28;20207;-68
2022/01/10 02:53:05;;;;;;;1.20;1.10;;;;;;;;;;5062847;28;20320;-68
2022/01/10 02:55:54;;;;;;;1.40;1.30;;;;;;;;;;5061332;28;20277;-68
2022/01/10 02:58:41;;;;;;;1.73;1.63;;;;;;;;;;5063989;28;20312;-69
2022/01/10 03:01:28;;;;;;;1.53;1.53;;;;;;;;;;5059743;28;20777;-68
2022/01/10 03:04:16;;;;;;;1.40;1.30;;;;;;;;;;5061437;28;20723;-68
2022/01/10 03:07:03;;;;;;;1.63;1.53;;;;;;;;;;5059524;28;20228;-70
2022/01/10 03:09:50;;;;;;;1.70;1.63;;;;;;;;;;5061905;28;20651;-67
2022/01/10 03:12:39;;;;;;;1.60;1.50;;;;;;;;;;5063113;28;20306;-68
2022/01/10 03:15:26;;;;;;;1.63;1.53;;;;;;;;;;5061888;28;20805;-68
2022/01/10 03:18:13;;;;;;;1.60;1.50;;;;;;;;;;5062079;28;20296;-68
2022/01/10 03:21:00;;;;;;;1.50;1.40;;;;;;;;;;5064949;28;20309;-68
2022/01/10 03:23:48;;;;;;;1.30;1.30;;;;;;;;;;5065521;28;20329;-68
2022/01/10 03:26:35;;;;;;;1.63;1.53;;;;;;;;;;5065944;28;20310;-68
2022/01/10 03:29:23;;;;;;;1.53;1.53;;;;;;;;;;5063138;28;20236;-68
2022/01/10 03:32:11;;;;;;;1.60;1.50;;;;;;;;;;5068489;28;20236;-68
2022/01/10 03:34:58;;;;;;;1.20;1.20;;;;;;;;;;5063208;28;20545;-68
2022/01/10 03:37:45;;;;;;;1.33;1.27;;;;;;;;;;5066976;28;20196;-68
2022/01/10 03:40:32;;;;;;;1.40;1.40;;;;;;;;;;5068156;28;20239;-68
2022/01/10 03:43:21;;;;;;;1.57;1.47;;;;;;;;;;5064640;28;20668;-68
2022/01/10 03:46:09;;;;;;;1.53;1.53;;;;;;;;;;5067517;28;20281;-68
2022/01/10 03:48:56;;;;;;;1.30;1.30;;;;;;;;;;5067336;28;20207;-68
2022/01/10 03:51:43;;;;;;;1.50;1.40;;;;;;;;;;5065442;28;20300;-69
2022/01/10 03:54:30;;;;;;;1.40;1.30;;;;;;;;;;5064973;28;20290;-68
2022/01/10 03:57:17;;;;;;;1.60;1.50;;;;;;;;;;5064534;28;20212;-68
2022/01/10 04:00:06;;;;;;;1.50;1.50;;;;;;;;;;5068833;28;20340;-68
2022/01/10 04:02:59;;;;;;;1.57;1.30;;;;;;;;;;5068334;28;20315;-68
2022/01/10 04:05:46;;;;;;;1.57;1.57;;;;;;;;;;5062026;28;20289;-67
2022/01/10 04:08:33;;;;;;;1.73;1.63;;;;;;;;;;5067208;28;20749;-69
2022/01/10 04:11:20;;;;;;;1.60;1.50;;;;;;;;;;5064353;28;20269;-68
2022/01/10 04:14:07;;;;;;;1.67;1.40;;;;;;;;;;5066446;28;20286;-68
2022/01/10 04:16:54;;;;;;;1.93;1.83;;;;;;;;;;5063564;28;20373;-68
2022/01/10 04:19:43;;;;;;;1.60;1.50;;;;;;;;;;5065524;28;20782;-68
2022/01/10 04:22:30;;;;;;;1.10;1.10;;;;;;;;;;5064072;28;20300;-68
2022/01/10 04:25:17;;;;;;;1.70;1.60;;;;;;;;;;5068278;28;20257;-68
2022/01/10 04:28:04;;;;;;;1.70;1.60;;;;;;;;;;5066891;28;20342;-68
2022/01/10 04:30:52;;;;;;;1.40;1.40;;;;;;;;;;5065976;28;20352;-68
2022/01/10 04:33:38;;;;;;;1.63;1.53;;;;;;;;;;5063555;28;20199;-68
2022/01/10 04:36:27;;;;;;;1.90;1.70;;;;;;;;;;5065116;28;20239;-67
2022/01/10 04:39:14;;;;;;;1.43;1.43;;;;;;;;;;5065199;28;20339;-67
2022/01/10 04:42:01;;;;;;;1.60;1.60;;;;;;;;;;5065576;28;20327;-68
2022/01/10 04:44:49;;;;;;;1.80;1.70;;;;;;;;;;5063844;28;20206;-68
2022/01/10 04:47:36;;;;;;;1.57;1.47;;;;;;;;;;5065398;28;20225;-67
2022/01/10 04:50:49;;;;;;;1.30;1.30;;;;;;;;;;5063920;28;20207;-68
2022/01/10 04:53:38;;;;;;;1.70;1.60;;;;;;;;;;5066113;28;20548;-68
2022/01/10 04:56:25;;;;;;;1.57;1.47;;;;;;;;;;5065244;28;20367;-68
2022/01/10 04:59:13;;;;;;;1.30;1.30;;;;;;;;;;5065383;28;20834;-68
2022/01/10 05:02:00;;;;;;;1.60;1.60;;;;;;;;;;5067401;28;20207;-67
2022/01/10 05:04:47;;;;;;;1.20;1.20;;;;;;;;;;5064319;28;20272;-68
2022/01/10 05:07:34;;;;;;;1.30;1.30;;;;;;;;;;5067089;28;20322;-68
2022/01/10 05:10:22;;;;;;;1.70;1.60;;;;;;;;;;5064960;28;20234;-67
2022/01/10 05:13:09;;;;;;;1.23;1.23;;;;;;;;;;5063297;28;20216;-68
2022/01/10 05:15:56;;;;;;;1.40;1.30;;;;;;;;;;5067043;28;20295;-68
2022/01/10 05:18:43;;;;;;;1.40;1.37;;;;;;;;;;5066714;28;20207;-68
2022/01/10 05:21:30;;;;;;;1.30;1.30;;;;;;;;;;5062833;28;20346;-67
2022/01/10 05:24:17;;;;;;;1.63;1.53;;;;;;;;;;5065878;28;20207;-68
2022/01/10 05:27:06;;;;;;;1.50;1.40;;;;;;;;;;5062587;28;20211;-67
2022/01/10 05:29:52;;;;;;;1.20;1.20;;;;;;;;;;5064372;28;20292;-67
2022/01/10 05:32:39;;;;;;;1.27;1.27;;;;;;;;;;5064562;28;20211;-68
2022/01/10 05:35:26;;;;;;;1.30;1.30;;;;;;;;;;5061043;28;20705;-68
2022/01/10 05:38:14;;;;;;;1.30;1.30;;;;;;;;;;5065095;28;20568;-68
2022/01/10 05:41:01;;;;;;;1.53;1.40;;;;;;;;;;5061210;28;20243;-68
2022/01/10 05:43:50;;;;;;;1.30;1.30;;;;;;;;;;5061959;28;20290;-67
2022/01/10 05:46:38;;;;;;;1.57;1.57;;;;;;;;;;5061641;28;20282;-68
2022/01/10 05:49:29;;;;;;;1.93;1.83;;;;;;;;;;5059967;28;20208;-67
2022/01/10 05:52:16;;;;;;;2.00;1.90;;;;;;;;;;5064620;28;20203;-68
2022/01/10 05:55:04;;;;;;;2.23;1.80;;;;;;;;;;5059477;28;20294;-68
2022/01/10 05:57:50;;;;;;;2.20;2.10;;;;;;;;;;5065242;28;20686;-67
2022/01/10 06:00:39;;;;;;;1.90;1.80;;;;;;;;;;5062310;28;20269;-67
2022/01/10 06:03:26;;;;;;;2.20;2.10;;;;;;;;;;5065145;28;20203;-68
2022/01/10 06:06:13;;;;;;;1.83;1.73;;;;;;;;;;5064378;28;20215;-68
2022/01/10 06:09:00;;;;;;;2.00;1.90;;;;;;;;;;5059102;28;20289;-67
2022/01/10 06:11:47;;;;;;;1.87;1.77;;;;;;;;;;5063252;28;20828;-68
2022/01/10 06:14:34;;;;;;;2.13;2.03;;;;;;;;;;5061805;28;20296;-67
2022/01/10 06:17:23;;;;;;;1.97;1.87;;;;;;;;;;5061853;28;20332;-68
2022/01/10 06:20:10;;;;;;;2.03;1.93;;;;;;;;;;5063342;28;20204;-68
2022/01/10 06:22:57;;;;;;;2.10;2.00;;;;;;;;;;5066843;28;20257;-68
2022/01/10 06:25:45;;;;;;;1.73;1.63;;;;;;;;;;5065197;28;20324;-68
2022/01/10 06:28:32;;;;;;;1.90;1.80;;;;;;;;;;5060706;28;20703;-68
2022/01/10 06:31:19;;;;;;;1.77;1.67;;;;;;;;;;5061100;28;20254;-68
2022/01/10 06:34:07;;;;;;;1.83;1.73;;;;;;;;;;5064631;28;20336;-67
2022/01/10 06:36:54;;;;;;;2.00;1.90;;;;;;;;;;5065591;28;20764;-68
2022/01/10 06:39:41;;;;;;;1.73;1.63;;;;;;;;;;5065829;28;20667;-68
2022/01/10 06:42:28;;;;;;;1.70;1.60;;;;;;;;;;5060153;28;20293;-69
2022/01/10 06:45:15;;;;;;;2.33;1.80;;;;;;;;;;5060121;28;20238;-68
2022/01/10 06:48:02;;;;;;;1.90;1.80;;;;;;;;;;5060994;28;20350;-67
2022/01/10 06:50:51;;;;;;;1.73;1.63;;;;;;;;;;5063106;28;20216;-68
2022/01/10 06:53:37;;;;;;;2.03;1.93;;;;;;;;;;5065099;28;20234;-67
2022/01/10 06:56:24;;;;;;;1.77;1.60;;;;;;;;;;5060876;28;20289;-68
2022/01/10 06:59:11;;;;;;;1.90;1.80;;;;;;;;;;5062266;28;20210;-68
2022/01/10 07:01:59;;;;;;;1.87;1.77;;;;;;;;;;5060611;28;20242;-67
2022/01/10 07:04:46;;;;;;;1.80;1.70;;;;;;;;;;5062109;28;20260;-67
2022/01/10 07:07:34;;;;;;;1.80;1.70;;;;;;;;;;5065036;28;20581;-67
2022/01/10 07:10:21;;;;;;;1.93;1.83;;;;;;;;;;5062324;28;20243;-68
2022/01/10 07:13:09;;;;;;;1.90;1.80;;;;;;;;;;5064035;28;20229;-68
2022/01/10 07:15:55;;;;;;;1.37;1.37;;;;;;;;;;5061228;28;20596;-68
2022/01/10 07:18:42;;;;;;;1.70;1.60;;;;;;;;;;5061122;28;20688;-67
2022/01/10 07:21:30;;;;;;;1.90;1.80;;;;;;;;;;5063122;28;20246;-68
2022/01/10 07:24:18;;;;;;;1.60;1.50;;;;;;;;;;5060214;28;20203;-67
2022/01/10 07:27:06;;;;;;;1.70;1.60;;;;;;;;;;5060294;28;20545;-68
2022/01/10 07:29:53;;;;;;;1.57;1.50;;;;;;;;;;5058720;28;20232;-68
2022/01/10 07:32:40;;;;;;;1.57;1.47;;;;;;;;;;5060918;28;20203;-68
2022/01/10 07:35:27;;;;;;;1.70;1.60;;;;;;;;;;5060286;28;20215;-68
2022/01/10 07:38:14;;;;;;;1.50;1.40;;;;;;;;;;5060349;28;20204;-69
2022/01/10 07:41:03;;;;;;;1.57;1.57;;;;;;;;;;5064478;28;20685;-67
2022/01/10 07:43:50;;;;;;;1.63;1.53;;;;;;;;;;5059751;28;20302;-68
2022/01/10 07:46:37;;;;;;;1.47;1.40;;;;;;;;;;5060506;28;20269;-68
2022/01/10 07:49:24;;;;;;;1.50;1.40;;;;;;;;;;5061781;28;20235;-68
2022/01/10 07:52:11;;;;;;;1.53;1.43;;;;;;;;;;5063433;28;20215;-68
2022/01/10 07:54:58;;;;;;;1.37;1.37;;;;;;;;;;5062906;28;20246;-68
2022/01/10 07:57:47;;;;;;;1.27;1.27;;;;;;;;;;5062445;28;20651;-67
2022/01/10 08:00:34;;;;;;;1.47;1.37;;;;;;;;;;5061689;28;20208;-67
2022/01/10 08:03:21;;;;;;;1.90;1.80;;;;;;;;;;5064150;28;20211;-67
2022/01/10 08:06:08;;;;;;;1.63;1.60;;;;;;;;;;5062284;28;20218;-68
2022/01/10 08:08:54;;;;;;;2.00;1.90;;;;;;;;;;5064734;28;20262;-68
2022/01/10 08:11:42;;;;;;;1.90;1.80;;;;;;;;;;5066320;28;20342;-67
2022/01/10 08:14:32;;;;;;;2.10;2.00;;;;;;;;;;5064308;28;20289;-68
2022/01/10 08:17:19;;;;;;;2.57;2.37;;;;;;;;;;5063482;28;20211;-67
2022/01/10 08:20:07;;;;;;;2.10;2.00;;;;;;;;;;5064012;28;20212;-68
2022/01/10 08:22:54;;;;;;;2.30;2.20;;;;;;;;;;5066418;28;20281;-68
2022/01/10 08:25:41;;;;;;;1.93;1.83;;;;;;;;;;5063467;28;20255;-68
2022/01/10 08:28:28;;;;;;;1.83;1.73;;;;;;;;;;5065112;28;20336;-68
2022/01/10 08:31:16;;;;;;;2.03;1.93;;;;;;;;;;5065237;28;20211;-65
2022/01/10 08:34:05;;;;;;;2.10;2.00;;;;;;;;;;5064109;28;20211;-65
2022/01/10 08:36:52;;;;;;;1.77;1.67;;;;;;;;;;5066124;28;20330;-67
2022/01/10 08:39:39;;;;;;;2.00;1.90;;;;;;;;;;5063829;28;20220;-67
2022/01/10 08:42:27;;;;;;;1.97;1.87;;;;;;;;;;5065736;28;20671;-67
2022/01/10 08:45:14;;;;;;;1.87;1.77;;;;;;;;;;5065455;28;20584;-67
2022/01/10 08:48:02;;;;;;;1.87;1.77;;;;;;;;;;5067406;28;20253;-67
2022/01/10 08:50:49;;;;;;;2.23;2.13;;;;;;;;;;5067224;28;20252;-70
2022/01/10 08:53:37;;;;;;;2.07;1.97;;;;;;;;;;5065961;28;20257;-65
2022/01/10 08:56:24;;;;;;;1.93;1.83;;;;;;;;;;5066114;28;20256;-64
2022/01/10 08:59:10;;;;;;;1.97;1.87;;;;;;;;;;5061217;28;20207;-65
2022/01/10 09:01:59;;;;;;;1.80;1.70;;;;;;;;;;5068228;28;20241;-65
2022/01/10 09:04:47;;;;;;;1.40;1.40;;;;;;;;;;5068090;28;20236;-66
2022/01/10 09:07:34;;;;;;;1.70;1.60;;;;;;;;;;5063739;28;20221;-67
2022/01/10 09:10:21;;;;;;;1.70;1.60;;;;;;;;;;5066343;28;20282;-66
2022/01/10 09:13:09;;;;;;;1.83;1.40;;;;;;;;;;5065360;28;20209;-67
2022/01/10 09:15:56;;;;;;;1.43;1.40;;;;;;;;;;5066456;28;20253;-67
2022/01/10 09:18:43;;;;;;;1.40;1.40;;;;;;;;;;5065305;28;20269;-68
2022/01/10 09:21:32;;;;;;;1.37;1.37;;;;;;;;;;5060338;28;20208;-68
2022/01/10 09:24:19;;;;;;;1.70;1.60;;;;;;;;;;5065721;28;20208;-67
2022/01/10 09:27:06;;;;;;;1.70;1.60;;;;;;;;;;5064591;28;20248;-68
2022/01/10 09:29:53;;;;;;;1.43;1.43;;;;;;;;;;5063244;28;20417;-66
2022/01/10 09:32:40;;;;;;;1.33;1.33;;;;;;;;;;5066666;28;20231;-66
2022/01/10 09:35:27;;;;;;;1.30;1.30;;;;;;;;;;5060736;28;20256;-67
2022/01/10 09:38:15;;;;;;;1.40;1.40;;;;;;;;;;5064466;28;20304;-67
2022/01/10 09:41:02;;;;;;;1.70;1.60;;;;;;;;;;5063688;28;20291;-66
2022/01/10 09:43:52;;;;;;;1.20;1.20;;;;;;;;;;5064990;28;20248;-66
2022/01/10 09:46:39;;;;;;;1.30;1.23;;;;;;;;;;5063960;28;20295;-66
2022/01/10 09:49:26;;;;;;;1.37;1.33;;;;;;;;;;5063810;28;20322;-66
2022/01/10 09:52:15;;;;;;;1.37;1.33;;;;;;;;;;5064435;28;20197;-66
2022/01/10 09:55:03;;;;;;;1.33;1.23;;;;;;;;;;5067179;28;20283;-66
2022/01/10 09:57:50;;;;;;;1.57;1.47;;;;;;;;;;5059702;28;20673;-66
2022/01/10 10:00:37;;;;;;;1.53;1.43;;;;;;;;;;5065648;28;20265;-67
2022/01/10 10:03:25;;;;;;;1.30;1.30;;;;;;;;;;5064358;28;20670;-66
2022/01/10 10:06:12;;;;;;;1.63;1.53;;;;;;;;;;5066645;28;20209;-66
2022/01/10 10:09:01;;;;;;;1.63;1.57;;;;;;;;;;5063258;28;20311;-67
2022/01/10 10:11:52;;;;;;;1.67;1.57;;;;;;;;;;5063939;28;20212;-66
2022/01/10 10:14:41;;;;;;;1.53;1.50;;;;;;;;;;5063928;28;20580;-67
2022/01/10 10:17:30;;;;;;;1.20;1.20;;;;;;;;;;5060414;28;20249;-67
2022/01/10 10:20:20;;;;;;;1.70;1.60;;;;;;;;;;5064781;28;20245;-66
2022/01/10 10:23:07;;;;;;;2.30;1.80;;;;;;;;;;5064350;28;20261;-67
2022/01/10 10:25:55;;;;;;;1.97;1.87;;;;;;;;;;5066503;28;20285;-66
2022/01/10 10:28:45;;;;;;;1.73;1.63;;;;;;;;;;5060934;28;20220;-67
2022/01/10 10:31:37;;;;;;;1.77;1.67;;;;;;;;;;5060211;28;20207;-67
2022/01/10 10:34:27;;;;;;;1.90;1.80;;;;;;;;;;5064239;28;20315;-67
2022/01/10 10:37:15;;;;;;;1.77;1.67;;;;;;;;;;5065520;28;20564;-67
2022/01/10 10:40:05;;;;;;;2.00;1.90;;;;;;;;;;5065319;28;20607;-66
2022/01/10 10:42:52;;;;;;;2.00;1.90;;;;;;;;;;5064840;28;20243;-68
2022/01/10 10:45:40;;;;;;;1.43;1.43;;;;;;;;;;5064123;28;20259;-66
2022/01/10 10:48:27;;;;;;;1.97;1.87;;;;;;;;;;5065378;28;20238;-66
2022/01/10 10:51:14;;;;;;;2.00;1.90;;;;;;;;;;5061654;28;20297;-67
2022/01/10 10:54:06;;;;;;;1.90;1.80;;;;;;;;;;5061494;28;20253;-66
2022/01/10 10:56:53;;;;;;;1.80;1.70;;;;;;;;;;5060283;28;21103;-66
2022/01/10 10:59:43;;;;;;;1.83;1.73;;;;;;;;;;5061495;28;20662;-66
2022/01/10 11:02:32;;;;;;;1.90;1.80;;;;;;;;;;5063737;28;20327;-67
2022/01/10 11:05:19;;;;;;;1.87;1.77;;;;;;;;;;5061341;28;20230;-67
2022/01/10 11:08:06;;;;;;;1.90;1.77;;;;;;;;;;5064641;28;20203;-66
2022/01/10 11:10:53;;;;;;;1.90;1.80;;;;;;;;;;5060763;28;20250;-66
2022/01/10 11:13:40;;;;;;;2.10;2.00;;;;;;;;;;5063310;28;20211;-67
2022/01/10 11:16:29;;;;;;;2.27;1.80;;;;;;;;;;5064189;28;20341;-66
2022/01/10 11:19:21;;;;;;;1.93;1.83;;;;;;;;;;5059443;28;20282;-67
2022/01/10 11:22:11;;;;;;;1.87;1.57;;;;;;;;;;5061526;28;20349;-67
2022/01/10 11:24:58;;;;;;;1.80;1.70;;;;;;;;;;5061797;28;20273;-67
2022/01/10 11:27:45;;;;;;;1.77;1.67;;;;;;;;;;5062678;28;20797;-67
2022/01/10 11:30:35;;;;;;;1.57;1.47;;;;;;;;;;5062395;28;20648;-67
2022/01/10 11:33:26;;;;;;;1.50;1.40;;;;;;;;;;5062063;28;20298;-67
2022/01/10 11:36:15;;;;;;;1.70;1.60;;;;;;;;;;5064610;28;20237;-67
2022/01/10 11:39:10;;;;;;;1.63;1.53;;;;;;;;;;5060158;28;20674;-67
2022/01/10 11:41:57;;;;;;;1.33;1.33;;;;;;;;;;5063308;28;20225;-67
2022/01/10 11:45:08;;;;;;;1.57;1.57;;;;;;;;;;5068676;28;20255;-67
2022/01/10 11:48:15;;;;;;;1.53;1.43;;;;;;;;;;5065868;28;20214;-67
2022/01/10 11:51:14;;;;;;;1.70;1.60;;;;;;;;;;5068916;28;20375;-67
2022/01/10 11:54:09;;;;;;;1.60;1.50;;;;;;;;;;5066714;28;20252;-66
2022/01/10 11:56:58;;;;;;;1.70;1.60;;;;;;;;;;5063100;28;20235;-67
2022/01/10 11:59:48;;;;;;;1.23;1.23;;;;;;;;;;5066753;28;20802;-67
2022/01/10 12:02:36;;;;;;;1.60;1.50;;;;;;;;;;5063644;28;20283;-67
2022/01/10 12:05:23;;;;;;;1.43;1.37;;;;;;;;;;5064443;28;20237;-67
2022/01/10 12:08:11;;;;;;;1.30;1.30;;;;;;;;;;5067145;28;20291;-67
2022/01/10 12:11:01;;;;;;;1.60;1.50;;;;;;;;;;5063817;28;20272;-68
2022/01/10 12:13:48;;;;;;;1.73;1.63;;;;;;;;;;5067887;28;20281;-67
2022/01/10 12:16:36;;;;;;;2.00;1.90;;;;;;;;;;5062239;28;20216;-67
2022/01/10 12:19:24;;;;;;;1.33;1.30;;;;;;;;;;5066548;28;20213;-67
2022/01/10 12:22:11;;;;;;;1.50;1.40;;;;;;;;;;5067088;28;20221;-67
2022/01/10 12:24:59;;;;;;;1.57;1.57;;;;;;;;;;5062899;28;20203;-67
2022/01/10 12:27:46;;;;;;;1.67;1.57;;;;;;;;;;5064048;28;20235;-67
2022/01/10 12:30:35;;;;;;;1.90;1.80;;;;;;;;;;5065415;28;20232;-68
2022/01/10 12:33:22;;;;;;;1.93;1.83;;;;;;;;;;5064483;28;20695;-67
2022/01/10 12:36:09;;;;;;;1.70;1.60;;;;;;;;;;5064835;28;20205;-68
2022/01/10 12:38:59;;;;;;;1.70;1.60;;;;;;;;;;5064167;28;20279;-67
2022/01/10 12:41:47;;;;;;;1.60;1.50;;;;;;;;;;5064202;28;20211;-67
2022/01/10 12:44:34;;;;;;;1.77;1.67;;;;;;;;;;5064275;28;20702;-67
2022/01/10 12:47:21;;;;;;;1.70;1.60;;;;;;;;;;5063143;28;20205;-68
2022/01/10 12:50:09;;;;;;;1.40;1.40;;;;;;;;;;5062692;28;20766;-67
2022/01/10 12:52:56;;;;;;;1.57;1.47;;;;;;;;;;5059713;28;20209;-67
2022/01/10 12:55:43;;;;;;;1.90;1.80;;;;;;;;;;5062588;28;20230;-67
2022/01/10 12:58:34;;;;;;;1.40;1.37;;;;;;;;;;5065805;28;20239;-67
2022/01/10 13:01:23;;;;;;;1.43;1.43;;;;;;;;;;5065347;28;20551;-67
2022/01/10 13:04:10;;;;;;;1.50;1.40;;;;;;;;;;5065913;28;20583;-67
2022/01/10 13:06:59;;;;;;;1.40;1.40;;;;;;;;;;5061345;28;20247;-66
2022/01/10 13:09:48;;;;;;;1.50;1.40;;;;;;;;;;5065803;28;20308;-67
2022/01/10 13:12:35;;;;;;;1.30;1.30;;;;;;;;;;5061194;28;20680;-67
2022/01/10 13:15:24;;;;;;;1.53;1.43;;;;;;;;;;5064699;28;20319;-67
2022/01/10 13:18:12;;;;;;;1.37;1.37;;;;;;;;;;5065755;28;20212;-67
2022/01/10 13:21:00;;;;;;;1.33;1.33;;;;;;;;;;5064099;28;20577;-67
2022/01/10 13:23:47;;;;;;;1.27;1.23;;;;;;;;;;5066904;28;20286;-68
2022/01/10 13:26:34;;;;;;;1.50;1.40;;;;;;;;;;5063427;28;20275;-67
2022/01/10 13:29:39;;;;;;;1.53;1.53;;;;;;;;;;5063527;28;20301;-67
2022/01/10 13:32:34;;;;;;;1.67;1.57;;;;;;;;;;5063668;28;20255;-73
2022/01/10 13:35:22;;;;;;;1.40;1.30;;;;;;;;;;5063797;28;20425;-67
2022/01/10 13:38:12;;;;;;;1.40;1.40;;;;;;;;;;5063335;28;20212;-67
2022/01/10 13:40:59;;;;;;;1.37;1.37;;;;;;;;;;5063450;28;20201;-67
2022/01/10 13:43:46;;;;;;;1.50;1.40;;;;;;;;;;5062007;28;20291;-67
2022/01/10 13:46:33;;;;;;;1.17;1.17;;;;;;;;;;5065517;28;20245;-67
2022/01/10 13:49:28;;;;;;;1.50;1.40;;;;;;;;;;5061617;28;20213;-67
2022/01/10 13:52:17;;;;;;;1.80;1.30;;;;;;;;;;5064248;28;20658;-67
2022/01/10 13:55:13;;;;;;;1.30;1.30;;;;;;;;;;5064356;28;20232;-67
2022/01/10 13:58:00;;;;;;;1.10;1.10;;;;;;;;;;5061788;28;20213;-67
2022/01/10 14:00:52;;;;;;;1.80;1.70;;;;;;;;;;5061851;28;20244;-68
2022/01/10 14:03:39;;;;;;;1.40;1.30;;;;;;;;;;5062854;28;20212;-67
2022/01/10 14:06:31;;;;;;;1.43;1.43;;;;;;;;;;5064610;28;20566;-67
2022/01/10 14:09:22;;;;;;;1.20;1.20;;;;;;;;;;5060653;28;20710;-67
2022/01/10 14:12:11;;;;;;;1.20;1.20;;;;;;;;;;5065597;28;20698;-66
2022/01/10 14:14:57;;;;;;;1.40;1.30;;;;;;;;;;5062858;28;20217;-67
2022/01/10 14:17:44;;;;;;;1.33;1.30;;;;;;;;;;5060384;28;20211;-68
2022/01/10 14:20:32;;;;;;;1.03;1.03;;;;;;;;;;5063889;28;20291;-66
2022/01/10 14:23:20;;;;;;;1.23;1.23;;;;;;;;;;5064836;28;20209;-67
2022/01/10 14:26:11;;;;;;;1.40;1.40;;;;;;;;;;5064187;28;20278;-67
2022/01/10 14:29:01;;;;;;;1.20;1.20;;;;;;;;;;5065216;28;20209;-67
2022/01/10 14:31:48;;;;;;;1.47;1.37;;;;;;;;;;5060142;28;20221;-67
2022/01/10 14:34:36;;;;;;;1.37;1.37;;;;;;;;;;5063119;28;20334;-67
2022/01/10 14:37:23;;;;;;;1.60;1.50;;;;;;;;;;5062245;28;20208;-67
2022/01/10 14:40:12;;;;;;;1.53;1.43;;;;;;;;;;5065522;28;20218;-67
2022/01/10 14:43:00;;;;;;;1.77;1.67;;;;;;;;;;5060200;28;20212;-68
2022/01/10 14:45:47;;;;;;;1.77;1.67;;;;;;;;;;5060702;28;20214;-67
2022/01/10 14:48:35;;;;;;;1.40;1.30;;;;;;;;;;5064409;28;20252;-66
2022/01/10 14:51:22;;;;;;;1.70;1.60;;;;;;;;;;5060108;28;20761;-66
2022/01/10 14:54:09;;;;;;;1.40;1.30;;;;;;;;;;5061997;28;20681;-67
2022/01/10 14:56:57;;;;;;;1.37;1.37;;;;;;;;;;5060340;28;20624;-67
2022/01/10 14:59:44;;;;;;;1.57;1.47;;;;;;;;;;5063293;28;20205;-67
2022/01/10 15:02:31;;;;;;;1.50;1.43;;;;;;;;;;5061287;28;20237;-67
2022/01/10 15:05:18;;;;;;;1.50;1.40;;;;;;;;;;5058709;28;20227;-67
2022/01/10 15:08:05;;;;;;;1.57;1.47;;;;;;;;;;5062369;28;20302;-67
2022/01/10 15:10:52;;;;;;;2.13;1.50;;;;;;;;;;5059457;28;20227;-68
2022/01/10 15:13:41;;;;;;;1.47;1.37;;;;;;;;;;5060618;28;20667;-67
2022/01/10 15:16:28;;;;;;;1.70;1.60;;;;;;;;;;5061799;28;20215;-66
2022/01/10 15:19:15;;;;;;;2.20;1.40;;;;;;;;;;5062081;28;20215;-66
2022/01/10 15:22:03;;;;;;;1.57;1.47;;;;;;;;;;5059835;28;20306;-67
2022/01/10 15:24:50;;;;;;;1.70;1.60;;;;;;;;;;5061987;28;20378;-67
2022/01/10 15:27:37;;;;;;;1.60;1.50;;;;;;;;;;5060115;28;20237;-67
2022/01/10 15:30:27;;;;;;;1.30;1.30;;;;;;;;;;5062393;28;20345;-67
2022/01/10 15:33:15;;;;;;;1.70;1.60;;;;;;;;;;5061449;28;20207;-67
2022/01/10 15:36:05;;;;;;;1.43;1.43;;;;;;;;;;5061959;28;20391;-67
2022/01/10 15:38:52;;;;;;;1.47;1.43;;;;;;;;;;5060047;28;20353;-67
2022/01/10 15:41:40;;;;;;;1.50;1.50;;;;;;;;;;5062409;28;20201;-67
2022/01/10 15:44:27;;;;;;;1.50;1.40;;;;;;;;;;5062505;28;20717;-66
2022/01/10 15:47:16;;;;;;;1.63;1.53;;;;;;;;;;5057149;28;20217;-67
2022/01/10 15:50:04;;;;;;;1.50;1.40;;;;;;;;;;5063542;28;20209;-67
2022/01/10 15:52:52;;;;;;;1.83;1.73;;;;;;;;;;5059683;28;20611;-66
2022/01/10 15:55:39;;;;;;;1.80;1.70;;;;;;;;;;5059688;28;20200;-67
2022/01/10 15:58:26;;;;;;;1.50;1.40;;;;;;;;;;5062402;28;20222;-66
2022/01/10 16:01:13;;;;;;;2.00;1.90;;;;;;;;;;5055584;28;20264;-67
2022/01/10 16:04:01;;;;;;;2.13;2.03;;;;;;;;;;5061683;28;20714;-67
2022/01/10 16:06:49;;;;;;;1.90;1.80;;;;;;;;;;5062783;28;20232;-66
2022/01/10 16:09:36;;;;;;;2.10;2.00;;;;;;;;;;5062476;28;20230;-67
2022/01/10 16:12:23;;;;;;;2.20;2.10;;;;;;;;;;5061305;28;20349;-67
2022/01/10 16:15:10;;;;;;;2.17;2.07;;;;;;;;;;5059716;28;20215;-67
2022/01/10 16:17:57;;;;;;;2.60;2.40;;;;;;;;;;5061772;28;20215;-67
2022/01/10 16:20:46;;;;;;;2.53;2.33;;;;;;;;;;5060168;28;20197;-67
2022/01/10 16:23:33;;;;;;;2.77;2.60;;;;;;;;;;5062691;28;20207;-66
2022/01/10 16:26:20;;;;;;;2.30;2.20;;;;;;;;;;5062441;28;20299;-67
2022/01/10 16:29:07;;;;;;;2.30;2.20;;;;;;;;;;5062342;28;20217;-66
2022/01/10 16:31:54;;;;;;;2.50;2.40;;;;;;;;;;5068319;28;20719;-66
2022/01/10 16:34:42;;;;;;;2.73;2.53;;;;;;;;;;5065643;28;20236;-66
2022/01/10 16:37:30;;;;;;;2.80;2.60;;;;;;;;;;5066984;28;20668;-67
2022/01/10 16:40:18;;;;;;;2.60;2.50;;;;;;;;;;5065830;28;20280;-66
2022/01/10 16:43:05;;;;;;;2.40;2.30;;;;;;;;;;5065041;28;20691;-66
2022/01/10 16:45:52;;;;;;;2.83;2.63;;;;;;;;;;5066106;28;20220;-66
2022/01/10 16:48:40;;;;;;;2.83;2.63;;;;;;;;;;5060743;28;20452;-66
2022/01/10 16:51:27;;;;;;;2.67;2.47;;;;;;;;;;5067057;28;20314;-66